Have a Safe July 4th! 

Flight Track Log - Related Links

Times and Time Zones

All times are in EDT time to prevent confusion due to time zone crossing. See the CRK122 flight status page for this flight to view local times or setup timezone preferences in your user account.

Time Position Orientation Groundspeed Altitude Reporting Facility
EDT Latitude Longitude Course Direction KTS MPH feet Rate Location/Type
Wed 07:19:28 AM 22.3808 113.4715 169° South 416 479 24,900  Level FlightAware ADS-B
Wed 07:20:05 AM 22.3199 113.4841 169° South 410 472 24,100 -1,200 Descending FlightAware ADS-B
Wed 07:20:48 AM 22.2439 113.5000 169° South 403 464 23,300 -1,084 Descending FlightAware ADS-B
Wed 07:21:28 AM 22.1711 113.5152 169° South 403 464 22,600 -1,259 Descending FlightAware ADS-B
Wed 07:22:09 AM 22.0828 113.5361 159° South 420 483 21,600 -2,000 Descending FlightAware ADS-B
Wed 07:22:28 AM 22.0506 113.5590 138° Southeast 426 490 20,600 -3,000 Descending FlightAware ADS-B
Wed 07:22:47 AM 22.0305 113.5884 116° Southeast 423 487 19,700 -2,769 Descending FlightAware ADS-B
Wed 07:23:07 AM 22.0196 113.6289 99° East 419 482 18,800 -2,571 Descending FlightAware ADS-B
Wed 07:23:29 AM 22.0232 113.6754 81° East 410 472 17,900 -2,262 Descending FlightAware ADS-B
Wed 07:24:08 AM 22.0346 113.7536 81° East 402 463 16,500 -2,203 Descending FlightAware ADS-B
Wed 07:24:48 AM 22.0449 113.8251 81° East 388 447 15,000 -2,417 Descending FlightAware ADS-B
Wed 07:25:20 AM 22.0560 113.8893 72° East 381 438 13,600 -2,727 Descending FlightAware ADS-B
Wed 07:25:54 AM 22.0830 113.9496 63° Northeast 385 443 12,000 -2,382 Descending FlightAware ADS-B
Wed 07:26:28 AM 22.1041 113.9932 63° Northeast 375 432 10,900 -2,055 Descending FlightAware ADS-B
Wed 07:27:07 AM 22.1260 114.0386 63° Northeast 359 413 9,500 -1,810 Descending FlightAware ADS-B
Wed 07:27:31 AM 22.1589 114.1069 63° Northeast 344 396 9,000 -1,500 Descending FlightAware ADS-B
Wed 07:27:47 AM 22.1691 114.1283 63° Northeast 330 380 8,500 -1,875 Descending FlightAware ADS-B
Wed 07:28:03 AM 22.1642 114.1180 63° Northeast 327 376 8,000 -1,429 Descending FlightAware ADS-B
Wed 07:28:29 AM 22.2028 114.1899 43° Northeast 312 359 7,500 -857 Descending FlightAware ADS-B
Wed 07:28:52 AM 22.2097 114.1965 41° Northeast 309 356 7,300 -773 Descending FlightAware ADS-B
Wed 07:35:28 AM 22.3513 114.0234 251° West 150 173 2,100 -788 Descending FlightAware ADS-B
Wed 07:37:00 AM 22.3089 113.9146 247° West  Level Estimated
Wed 07:38:00 AM 22.3089 113.9146 North  Level Estimated
Wed 07:39:00 AM 22.3089 113.9146 North  Level Estimated
Wed 07:40:00 AM 22.3089 113.9146 North  Level Estimated
Wed 07:41:00 AM 22.3089 113.9146 North  Level Estimated
Wed 07:42:00 AM 22.3089 113.9146 North  Level Estimated
Wed 07:43:00 AM 22.3089 113.9146 North  Level Estimated
Wed 07:44:00 AM 22.3089 113.9146 North  Level Estimated
Wed 07:45:00 AM 22.3089 113.9146 North  Level Estimated
Wed 07:46:00 AM 22.3089 113.9146 North  Level Estimated
Wed 07:47:00 AM 22.3089 113.9146 North  Level Estimated
Wed 07:48:00 AM 22.3089 113.9146 North  Level Estimated
Wed 07:49:00 AM 22.3089 113.9146 North  Level Estimated
Wed 07:50:00 AM 22.3089 113.9146 North  Level Estimated
Wed 07:51:00 AM 22.3089 113.9146 North  Level Estimated
Wed 07:52:00 AM 22.3089 113.9146 North  Level Estimated
Wed 07:53:00 AM 22.3089 113.9146 North  Level Estimated

Login

Don't have an account? Register now (free) for customized features, flight alerts, and more!